createdAt,value
2023-01-28T05:38:04.621Z,12.10
2023-01-28T05:40:32.109Z,13.00
2023-01-28T05:42:59.561Z,14.60
2023-01-28T05:45:40.712Z,13.00
2023-01-28T05:48:28.847Z,14.10
2023-01-28T05:51:27.976Z,13.70
2023-01-28T05:54:00.146Z,13.40
2023-01-28T05:56:26.815Z,12.70
2023-01-28T05:58:53.320Z,13.00
2023-01-28T06:01:21.016Z,13.70
2023-01-28T06:03:53.218Z,13.00
2023-01-28T06:06:20.072Z,12.80
2023-01-28T06:14:45.120Z,13.40
2023-01-28T06:17:32.856Z,13.40
2023-01-28T06:20:08.473Z,12.20
2023-01-28T06:22:38.519Z,12.90
2023-01-28T06:25:07.083Z,13.60
2023-01-28T06:27:35.716Z,13.70
2023-01-28T06:30:04.336Z,13.00
2023-01-28T06:32:33.904Z,12.60
2023-01-28T06:35:01.873Z,12.20
2023-01-28T06:37:30.735Z,14.20
2023-01-28T06:39:58.948Z,13.30
2023-01-28T06:42:26.998Z,13.80
2023-01-28T06:44:55.135Z,13.50
2023-01-28T06:47:23.144Z,14.10
2023-01-28T06:49:51.066Z,13.70
2023-01-28T06:52:19.027Z,14.50
2023-01-28T06:54:47.304Z,15.50
2023-01-28T06:57:15.162Z,14.40
2023-01-28T06:59:43.203Z,14.50
2023-01-28T07:02:11.648Z,12.00
2023-01-28T07:04:39.601Z,13.50
2023-01-28T07:07:07.926Z,13.80
2023-01-28T07:09:36.646Z,14.00
2023-01-28T07:12:05.416Z,14.00
2023-01-28T07:14:33.720Z,13.40
2023-01-28T07:17:02.061Z,13.40
2023-01-28T07:19:30.361Z,13.40
2023-01-28T07:22:00.914Z,12.80
2023-01-28T07:24:29.855Z,13.90
2023-01-28T07:26:57.800Z,12.60
2023-01-28T07:29:26.782Z,13.90
2023-01-28T07:31:54.751Z,14.40
2023-01-28T07:34:22.645Z,14.20
2023-01-28T07:36:50.551Z,14.40
2023-01-28T07:39:18.862Z,15.00
2023-01-28T07:41:47.457Z,14.80
2023-01-28T07:44:33.794Z,15.50
2023-01-28T07:47:02.505Z,15.80
2023-01-28T07:49:30.541Z,13.70
2023-01-28T07:52:01.708Z,15.90
2023-01-28T07:54:29.941Z,16.00
2023-01-28T07:56:57.811Z,15.90
2023-01-28T07:59:26.306Z,16.20
2023-01-28T08:01:55.180Z,17.40
2023-01-28T08:04:23.504Z,15.60
2023-01-28T08:06:52.347Z,16.30
2023-01-28T08:09:20.368Z,14.70
2023-01-28T08:11:49.331Z,14.80
2023-01-28T08:14:17.382Z,15.30
2023-01-28T08:16:45.324Z,16.80
2023-01-28T08:19:13.229Z,14.90
2023-01-28T10:13:28.221Z,18.30
2023-01-28T10:16:10.646Z,15.10
2023-01-28T10:19:00.538Z,14.40
2023-01-28T10:21:40.928Z,14.50
2023-01-28T10:24:18.333Z,16.50
2023-01-28T10:26:45.217Z,14.90
2023-01-28T10:29:32.767Z,13.10
2023-01-28T10:32:20.795Z,12.50
2023-01-28T10:34:47.784Z,11.90
2023-01-28T10:37:14.633Z,13.70
2023-01-28T10:39:41.477Z,13.00
2023-01-28T10:42:35.457Z,13.20
2023-01-28T10:45:14.976Z,12.90
2023-01-28T10:47:45.322Z,11.50
2023-01-28T10:50:22.792Z,13.30
2023-01-28T10:53:00.742Z,13.80
2023-01-28T10:55:34.215Z,13.60
2023-01-28T10:58:04.874Z,12.00
2023-01-28T11:00:35.531Z,12.60
2023-01-28T11:03:04.301Z,12.60
2023-01-28T11:05:32.553Z,12.30
2023-01-28T11:08:12.859Z,13.20
2023-01-28T11:10:40.222Z,14.60
2023-01-28T11:13:22.397Z,13.40
2023-01-28T11:15:53.838Z,11.50
2023-01-28T11:18:25.057Z,12.20
